createdAt,value
2018-11-12T00:02:24.501Z,10.10
2018-11-12T00:04:52.657Z,10.20
2018-11-12T00:07:20.859Z,10.20
2018-11-12T00:09:49.106Z,10.20
2018-11-12T00:12:17.294Z,10.20
2018-11-12T00:14:45.508Z,10.10
2018-11-12T00:17:13.728Z,10.10
2018-11-12T00:19:42.036Z,10.00
2018-11-12T00:22:10.412Z,10.00
2018-11-12T00:24:38.829Z,9.90
2018-11-12T00:27:07.039Z,10.00
2018-11-12T00:29:35.376Z,9.90
2018-11-12T00:32:03.573Z,10.00
2018-11-12T00:34:31.879Z,9.90
2018-11-12T00:37:00.290Z,9.90
2018-11-12T00:39:28.632Z,9.80
2018-11-12T00:41:56.912Z,9.90
2018-11-12T00:44:25.194Z,9.90
2018-11-12T00:46:53.598Z,9.90
2018-11-12T00:49:21.867Z,10.00
2018-11-12T00:51:50.225Z,9.90
2018-11-12T00:54:18.548Z,9.90
2018-11-12T00:56:46.876Z,9.90
2018-11-12T00:59:15.212Z,10.00
2018-11-12T01:01:43.455Z,10.00
2018-11-12T01:04:11.758Z,9.90
2018-11-12T01:06:40.022Z,9.90
2018-11-12T01:09:10.122Z,9.80
2018-11-12T01:11:38.432Z,9.80
2018-11-12T01:14:06.755Z,9.80
2018-11-12T01:16:35.125Z,9.80
2018-11-12T01:19:03.823Z,9.80
2018-11-12T01:21:32.082Z,9.90
2018-11-12T01:24:00.636Z,9.90
2018-11-12T01:26:28.999Z,9.90
2018-11-12T01:28:57.189Z,10.00
2018-11-12T01:31:25.500Z,10.10
2018-11-12T01:33:53.750Z,10.10
2018-11-12T01:36:21.977Z,10.10
2018-11-12T01:38:50.179Z,10.10
2018-11-12T01:41:18.407Z,10.20
2018-11-12T01:43:46.648Z,10.20
2018-11-12T01:46:14.930Z,10.20
2018-11-12T01:48:43.289Z,10.30
2018-11-12T01:51:11.555Z,10.40
2018-11-12T01:53:39.841Z,10.50
2018-11-12T01:56:08.566Z,10.50
2018-11-12T01:58:37.091Z,10.50
2018-11-12T02:01:05.461Z,10.50
2018-11-12T02:03:33.802Z,10.60
2018-11-12T02:06:02.028Z,10.60
2018-11-12T02:08:30.269Z,10.60
2018-11-12T02:10:58.551Z,10.60
2018-11-12T02:13:26.930Z,10.60
2018-11-12T02:15:55.319Z,10.70
2018-11-12T02:18:23.561Z,10.70
2018-11-12T02:20:51.832Z,10.70
2018-11-12T02:23:20.133Z,10.70
2018-11-12T02:25:48.446Z,10.70
2018-11-12T02:28:16.712Z,10.80
2018-11-12T02:30:46.736Z,10.80
2018-11-12T02:33:15.441Z,10.80
2018-11-12T02:35:43.906Z,10.80
2018-11-12T02:38:12.148Z,10.80
2018-11-12T02:40:40.466Z,10.80
2018-11-12T02:43:08.853Z,10.90
2018-11-12T02:45:37.146Z,10.90
2018-11-12T02:48:05.385Z,10.90
2018-11-12T02:50:33.644Z,10.80
2018-11-12T02:53:01.884Z,10.80
2018-11-12T02:55:30.172Z,10.80
2018-11-12T02:57:58.475Z,10.70
2018-11-12T03:00:26.754Z,10.80
2018-11-12T03:02:55.119Z,10.80
2018-11-12T03:05:23.313Z,10.80
2018-11-12T03:07:51.628Z,10.80
2018-11-12T03:10:23.027Z,10.80
2018-11-12T03:12:51.349Z,10.80
2018-11-12T03:15:20.273Z,10.80
2018-11-12T03:17:49.125Z,10.80
2018-11-12T03:20:18.591Z,10.80
2018-11-12T03:22:46.888Z,10.70
2018-11-12T03:25:16.325Z,10.70
2018-11-12T03:27:45.316Z,10.70
2018-11-12T03:30:17.736Z,10.70
2018-11-12T03:32:46.691Z,10.70
2018-11-12T03:35:15.219Z,10.70
2018-11-12T03:37:44.523Z,10.70
2018-11-12T03:40:15.611Z,10.70
2018-11-12T03:42:44.361Z,10.70
2018-11-12T03:45:14.854Z,10.70
2018-11-12T03:47:43.059Z,10.70
2018-11-12T03:50:13.341Z,10.60
2018-11-12T03:52:41.765Z,10.60
2018-11-12T03:55:11.501Z,10.60
2018-11-12T03:57:39.822Z,10.60
2018-11-12T04:00:15.739Z,10.60
2018-11-12T04:02:44.167Z,10.70
2018-11-12T04:05:12.352Z,10.70
2018-11-12T04:07:40.984Z,10.70
2018-11-12T04:10:20.333Z,10.80
2018-11-12T04:12:48.554Z,10.70
2018-11-12T04:15:18.109Z,10.70
2018-11-12T04:17:46.321Z,10.70
2018-11-12T04:20:16.684Z,10.70
2018-11-12T04:23:16.369Z,10.70
2018-11-12T04:25:44.545Z,10.70
2018-11-12T04:28:12.677Z,10.70
2018-11-12T04:30:40.878Z,10.60
2018-11-12T04:33:09.064Z,10.70
2018-11-12T04:35:37.257Z,10.70
2018-11-12T04:38:05.467Z,10.70
2018-11-12T04:40:33.596Z,10.70
2018-11-12T04:43:01.820Z,10.60
2018-11-12T04:45:30.042Z,10.50
2018-11-12T04:47:58.222Z,10.50
2018-11-12T04:50:27.458Z,10.50
2018-11-12T04:52:55.735Z,10.60
2018-11-12T04:55:24.599Z,10.60
2018-11-12T04:57:52.852Z,10.60
2018-11-12T05:00:22.835Z,10.70
2018-11-12T05:02:51.111Z,10.60
2018-11-12T05:05:20.776Z,10.60
2018-11-12T05:07:48.971Z,10.50
2018-11-12T05:10:18.350Z,10.60
2018-11-12T05:12:47.303Z,10.50
2018-11-12T05:15:17.134Z,10.40
2018-11-12T05:17:45.469Z,10.50
2018-11-12T05:20:18.242Z,10.40
2018-11-12T05:22:46.500Z,10.40
2018-11-12T05:25:14.737Z,10.40
2018-11-12T05:27:42.974Z,10.40
2018-11-12T05:30:13.390Z,10.40
2018-11-12T05:32:41.764Z,10.40
2018-11-12T05:35:10.167Z,10.30
2018-11-12T05:37:38.437Z,10.30
2018-11-12T05:40:08.815Z,10.20
2018-11-12T05:42:36.983Z,10.20
2018-11-12T05:45:05.970Z,10.20
2018-11-12T05:47:34.445Z,10.20
2018-11-12T05:50:02.782Z,10.20
2018-11-12T05:52:31.003Z,10.20
2018-11-12T05:55:00.369Z,10.30
2018-11-12T05:57:28.586Z,10.30
2018-11-12T05:59:56.769Z,10.30
2018-11-12T06:02:24.891Z,10.40
2018-11-12T06:04:53.079Z,10.40
2018-11-12T06:07:21.355Z,10.40
2018-11-12T06:09:49.517Z,10.40
2018-11-12T06:12:17.693Z,10.40
2018-11-12T06:14:45.863Z,10.40
2018-11-12T06:17:14.110Z,10.30
2018-11-12T06:19:42.325Z,10.30
2018-11-12T06:22:12.080Z,10.30
2018-11-12T06:24:41.617Z,10.30
2018-11-12T06:27:09.955Z,10.20
2018-11-12T06:29:38.260Z,10.20
2018-11-12T06:32:06.560Z,10.20
2018-11-12T06:34:34.769Z,10.20
2018-11-12T06:37:03.013Z,10.20
2018-11-12T06:39:31.249Z,10.20
2018-11-12T06:41:59.502Z,10.20
2018-11-12T06:44:27.754Z,10.20
2018-11-12T06:46:56.005Z,10.20
2018-11-12T06:49:24.205Z,10.20
2018-11-12T06:51:52.483Z,10.20
2018-11-12T06:54:20.775Z,10.10
2018-11-12T06:56:49.045Z,10.20
2018-11-12T06:59:17.285Z,10.10
2018-11-12T07:01:45.525Z,10.20
2018-11-12T07:04:13.763Z,10.20
2018-11-12T07:06:42.029Z,10.20
2018-11-12T07:09:12.124Z,10.20
2018-11-12T07:11:40.461Z,10.30
2018-11-12T07:14:08.842Z,10.30
2018-11-12T07:16:37.469Z,10.40
2018-11-12T07:19:05.865Z,10.30
2018-11-12T07:21:34.083Z,10.30
2018-11-12T07:24:02.423Z,10.40
2018-11-12T07:26:30.713Z,10.40
2018-11-12T07:28:59.074Z,10.40
2018-11-12T07:31:27.362Z,10.40
2018-11-12T07:33:55.533Z,10.40
2018-11-12T07:36:23.779Z,10.40
2018-11-12T07:38:51.997Z,10.40
2018-11-12T07:41:20.319Z,10.40
2018-11-12T07:43:48.590Z,10.40
2018-11-12T07:46:16.801Z,10.40
2018-11-12T07:48:46.263Z,10.30
2018-11-12T07:51:14.475Z,10.30
2018-11-12T07:53:42.752Z,10.30
2018-11-12T07:56:11.064Z,10.30
2018-11-12T07:58:39.396Z,10.30
2018-11-12T08:01:07.652Z,10.30
2018-11-12T08:03:36.876Z,10.50
2018-11-12T08:06:05.133Z,10.40
2018-11-12T08:08:33.400Z,10.50
2018-11-12T08:11:01.628Z,10.50
2018-11-12T08:13:29.957Z,10.50
2018-11-12T08:15:58.172Z,10.60
2018-11-12T08:18:26.383Z,10.60
2018-11-12T08:20:54.764Z,10.60
2018-11-12T08:23:22.961Z,10.60
2018-11-12T08:25:51.126Z,10.70
2018-11-12T08:28:19.332Z,10.70
2018-11-12T08:30:47.536Z,10.60
2018-11-12T08:33:15.865Z,10.70
2018-11-12T08:35:44.092Z,10.70
2018-11-12T08:38:12.373Z,10.70
2018-11-12T08:40:40.706Z,10.80
2018-11-12T08:43:08.942Z,10.70
2018-11-12T08:45:37.280Z,10.80
2018-11-12T08:48:05.879Z,10.90
2018-11-12T08:50:34.375Z,11.00
2018-11-12T08:53:02.708Z,11.00
2018-11-12T08:55:31.298Z,11.00
2018-11-12T08:58:01.083Z,11.00
2018-11-12T09:00:29.393Z,11.00
2018-11-12T09:02:59.791Z,10.90
2018-11-12T09:05:29.481Z,10.90
2018-11-12T09:07:58.982Z,11.00
2018-11-12T09:10:28.878Z,11.00
2018-11-12T09:12:57.369Z,11.00
2018-11-12T09:15:25.654Z,11.10
2018-11-12T09:17:53.969Z,11.10
2018-11-12T09:20:24.422Z,11.20
2018-11-12T09:22:52.882Z,11.20
2018-11-12T09:25:22.307Z,11.20
2018-11-12T09:27:50.712Z,11.20
2018-11-12T09:30:22.223Z,11.20
2018-11-12T09:32:50.499Z,11.20
2018-11-12T09:35:20.166Z,11.20
2018-11-12T09:37:49.363Z,11.20
2018-11-12T09:40:23.776Z,11.20
2018-11-12T09:42:52.001Z,11.20
2018-11-12T09:45:20.208Z,11.20
2018-11-12T09:47:48.539Z,11.20
2018-11-12T09:50:18.112Z,11.20
2018-11-12T09:52:47.536Z,11.30
2018-11-12T09:55:16.572Z,11.30
2018-11-12T09:57:46.902Z,11.20
2018-11-12T10:00:21.154Z,11.20
2018-11-12T10:02:50.715Z,11.30
2018-11-12T10:05:19.458Z,11.40
2018-11-12T10:07:52.143Z,11.30
2018-11-12T10:10:28.229Z,11.30
2018-11-12T10:12:56.026Z,11.30
2018-11-12T10:15:24.531Z,11.20
2018-11-12T10:17:53.204Z,11.20
2018-11-12T10:20:20.276Z,11.20
2018-11-12T10:22:48.832Z,11.20
2018-11-12T10:25:17.840Z,11.20
2018-11-12T10:27:46.163Z,11.20
2018-11-12T10:30:14.406Z,11.20
2018-11-12T10:32:42.746Z,11.20
2018-11-12T10:35:11.142Z,11.30
2018-11-12T10:37:40.672Z,11.30
2018-11-12T10:40:12.534Z,11.30
2018-11-12T10:42:40.752Z,11.30
2018-11-12T10:45:09.069Z,11.40
2018-11-12T10:47:37.534Z,11.40
2018-11-12T10:50:06.426Z,11.40
2018-11-12T10:52:34.925Z,11.30
2018-11-12T10:55:05.716Z,11.30
2018-11-12T10:57:31.514Z,11.20
2018-11-12T10:59:59.712Z,11.20
2018-11-12T11:02:36.451Z,11.20
2018-11-12T11:10:44.777Z,11.10
2018-11-12T11:13:13.110Z,11.10
2018-11-12T11:15:41.491Z,11.20
2018-11-12T11:18:09.798Z,11.20
2018-11-12T11:20:38.056Z,11.30
2018-11-12T11:23:06.296Z,11.30
2018-11-12T11:25:35.564Z,11.40
2018-11-12T11:28:03.832Z,11.40
2018-11-12T11:30:32.165Z,11.40
2018-11-12T11:33:00.546Z,11.50
2018-11-12T11:35:30.242Z,11.50
2018-11-12T11:37:59.772Z,11.60
2018-11-12T11:40:28.341Z,11.60
2018-11-12T11:42:56.777Z,11.60
2018-11-12T11:45:25.134Z,11.60
2018-11-12T11:47:53.954Z,11.60
2018-11-12T11:50:23.778Z,11.70
2018-11-12T11:52:52.165Z,11.80
2018-11-12T11:55:21.697Z,12.00
2018-11-12T11:57:50.473Z,12.20
2018-11-12T12:00:20.120Z,12.30
2018-11-12T12:02:49.670Z,12.40
2018-11-12T12:05:19.143Z,12.60
2018-11-12T12:07:47.609Z,12.80
2018-11-12T12:10:16.430Z,13.30
2018-11-12T12:12:45.590Z,13.30
2018-11-12T12:15:15.273Z,13.10
2018-11-12T12:17:43.965Z,12.90
2018-11-12T12:20:15.161Z,12.80
2018-11-12T12:22:43.719Z,12.60
2018-11-12T12:25:13.447Z,12.60
2018-11-12T12:27:42.363Z,12.60
2018-11-12T12:30:15.827Z,12.60
2018-11-12T12:32:45.267Z,12.60
2018-11-12T12:35:15.100Z,12.50
2018-11-12T12:37:44.145Z,12.50
2018-11-12T12:40:14.616Z,12.50
2018-11-12T12:42:42.851Z,12.50
2018-11-12T12:45:12.782Z,12.50
2018-11-12T12:47:41.341Z,12.50
2018-11-12T12:50:11.947Z,12.50
2018-11-12T12:52:40.135Z,12.50
2018-11-12T12:55:09.514Z,12.40
2018-11-12T12:57:37.788Z,12.40
2018-11-12T13:00:09.999Z,12.40
2018-11-12T13:02:38.979Z,12.30
2018-11-12T13:05:07.232Z,12.30
2018-11-12T13:07:35.522Z,12.40
2018-11-12T13:10:04.111Z,12.40
2018-11-12T13:12:32.335Z,12.50
2018-11-12T13:15:00.726Z,12.60
2018-11-12T13:17:28.814Z,12.50
2018-11-12T13:19:57.132Z,12.50
2018-11-12T13:22:25.319Z,12.50
2018-11-12T13:24:53.520Z,12.50
2018-11-12T13:27:21.757Z,12.50
2018-11-12T13:29:51.068Z,12.50
2018-11-12T13:32:19.314Z,12.50
2018-11-12T13:34:47.488Z,12.50
2018-11-12T13:37:15.701Z,12.50
2018-11-12T13:39:44.885Z,12.50
2018-11-12T13:42:13.080Z,12.60
2018-11-12T13:44:41.266Z,12.60
2018-11-12T13:47:09.973Z,12.60
2018-11-12T13:49:38.161Z,12.60
2018-11-12T13:52:06.367Z,12.60
2018-11-12T13:54:34.655Z,12.40
2018-11-12T13:57:02.912Z,12.30
2018-11-12T13:59:31.225Z,12.20
2018-11-12T14:02:00.523Z,12.30
2018-11-12T14:04:28.745Z,12.20
2018-11-12T14:06:56.965Z,12.20
2018-11-12T14:09:25.218Z,12.20
2018-11-12T14:11:53.424Z,12.30
2018-11-12T14:14:21.619Z,12.30
2018-11-12T14:16:49.898Z,12.30
2018-11-12T14:19:18.087Z,12.30
2018-11-12T14:21:46.339Z,12.40
2018-11-12T14:24:14.565Z,12.40
2018-11-12T14:26:42.811Z,12.40
2018-11-12T14:29:11.032Z,12.40
2018-11-12T14:31:39.219Z,12.30
2018-11-12T14:34:07.466Z,12.20
2018-11-12T14:36:35.679Z,12.20
2018-11-12T14:39:05.365Z,12.10
2018-11-12T14:41:33.568Z,12.00
2018-11-12T14:44:03.604Z,12.00
2018-11-12T14:46:31.857Z,12.00
2018-11-12T14:49:00.095Z,12.00
2018-11-12T14:51:28.303Z,11.90
2018-11-12T14:53:56.457Z,12.00
2018-11-12T14:56:25.699Z,12.00
2018-11-12T14:58:53.954Z,12.00
2018-11-12T15:01:22.150Z,12.00
2018-11-12T15:03:50.434Z,12.00
2018-11-12T15:06:19.783Z,12.00
2018-11-12T15:08:48.067Z,12.00
2018-11-12T15:11:16.360Z,11.90
2018-11-12T15:13:44.605Z,11.90
2018-11-12T15:16:12.852Z,11.80
2018-11-12T15:18:41.037Z,11.80
2018-11-12T15:21:09.344Z,11.70
2018-11-12T15:23:42.090Z,11.60
2018-11-12T15:26:12.601Z,11.40
2018-11-12T15:28:41.008Z,11.30
2018-11-12T15:31:09.423Z,11.20
2018-11-12T15:33:37.861Z,11.10
2018-11-12T15:36:06.171Z,11.10
2018-11-12T15:38:34.514Z,10.90
2018-11-12T15:41:02.952Z,10.90
2018-11-12T15:43:31.398Z,10.90
2018-11-12T15:45:59.790Z,10.80
2018-11-12T15:48:28.342Z,10.70
2018-11-12T15:50:56.781Z,10.70
2018-11-12T15:53:25.589Z,10.70
2018-11-12T15:55:56.461Z,10.60
2018-11-12T15:58:24.979Z,10.50
2018-11-12T16:00:53.460Z,10.50
2018-11-12T16:03:21.758Z,10.40
2018-11-12T16:05:50.041Z,10.40
2018-11-12T16:08:18.472Z,10.40
2018-11-12T16:10:46.820Z,10.40
2018-11-12T16:13:15.152Z,10.40
2018-11-12T16:15:43.442Z,10.40
2018-11-12T16:18:11.803Z,10.30
2018-11-12T16:20:43.325Z,10.20
2018-11-12T16:23:11.627Z,10.20
2018-11-12T16:25:39.824Z,10.20
2018-11-12T16:28:08.021Z,10.20
2018-11-12T16:30:36.315Z,10.10
2018-11-12T16:33:04.836Z,10.10
2018-11-12T16:35:33.033Z,10.20
2018-11-12T16:38:01.877Z,10.10
2018-11-12T16:40:30.507Z,10.10
2018-11-12T16:42:58.675Z,10.10
2018-11-12T16:45:26.820Z,10.10
2018-11-12T16:47:55.276Z,10.10
2018-11-12T16:50:23.589Z,10.00
2018-11-12T16:52:51.845Z,10.10
2018-11-12T16:55:21.519Z,10.00
2018-11-12T16:57:49.988Z,10.00
2018-11-12T17:00:19.306Z,10.00
2018-11-12T17:02:47.675Z,10.00
2018-11-12T17:05:18.325Z,10.10
2018-11-12T17:07:47.634Z,10.10
2018-11-12T17:10:17.064Z,10.10
2018-11-12T17:12:46.111Z,10.10
2018-11-12T17:15:14.699Z,10.10
2018-11-12T17:17:42.999Z,10.10
2018-11-12T17:20:12.666Z,10.00
